Time;durP1;ratioP1;P1;durP2;ratioP2;P2;SDS_P1;SDS_P2;PMS_P1;PMS_P2;Temp;Humidity;BMP_temperature;BMP_pressure;BME280_temperature;BME280_humidity;BME280_pressure;Samples;Min_cycle;Max_cycle;Signal;HPM_P1;HPM_P2
2022/09/24 00:01:21;;;;;;;;;;;;;;;21.28;63.06;101293.25;7284032;19;152852;-60
2022/09/24 00:03:50;;;;;;;;;;;;;;;21.30;63.35;101284.53;7285398;19;152581;-60
2022/09/24 00:06:18;;;;;;;;;;;;;;;21.29;63.50;101285.66;7285158;19;152735;-60
2022/09/24 00:08:46;;;;;;;;;;;;;;;21.29;63.09;101286.50;7283146;19;153387;-60
2022/09/24 00:11:13;;;;;;;;;;;;;;;21.29;63.18;101292.13;7284960;19;151884;-60
2022/09/24 00:13:40;;;;;;;;;;;;;;;21.30;63.15;101290.16;7281428;19;152607;-60
2022/09/24 00:16:09;;;;;;;;;;;;;;;21.30;63.55;101281.72;7286955;19;154580;-60
2022/09/24 00:18:36;;;;;;;;;;;;;;;21.30;63.64;101290.16;7282768;19;153339;-60
2022/09/24 00:21:13;;;;;;;;;;;;;;;21.33;63.53;101283.06;7283515;19;154265;-60
2022/09/24 00:23:41;;;;;;;;;;;;;;;21.30;63.83;101288.16;7282064;19;152266;-59
2022/09/24 00:28:48;;;;;;;;;;;;;;;21.29;63.80;101291.28;7282223;19;153239;-59
2022/09/24 00:31:16;;;;;;;;;;;;;;;21.31;64.09;101291.81;7286296;19;151608;-59
2022/09/24 00:33:43;;;;;;;;;;;;;;;21.30;64.08;101290.16;7280741;19;153828;-59
2022/09/24 00:36:09;;;;;;;;;;;;;;;21.29;64.12;101291.28;7289423;19;153205;-59
2022/09/24 00:38:36;;;;;;;;;;;;;;;21.29;63.79;101282.88;7283423;19;153223;-60
2022/09/24 00:41:03;;;;;;;;;;;;;;;21.29;64.09;101285.66;7284371;19;153026;-60
2022/09/24 00:43:35;;;;;;;;;;;;;;;21.29;63.98;101282.88;7281880;19;151803;-59
2022/09/24 00:46:22;;;;;;;;;;;;;;;21.28;64.33;101284.00;7286403;19;152853;-59
2022/09/24 00:49:01;;;;;;;;;;;;;;;21.29;64.18;101282.88;7279771;19;153307;-59
2022/09/24 00:51:30;;;;;;;;;;;;;;;21.29;63.96;101280.06;7284807;19;153204;-59
2022/09/24 00:54:05;;;;;;;;;;;;;;;21.30;64.03;101278.91;7283893;19;152676;-59
2022/09/24 00:56:35;;;;;;;;;;;;;;;21.30;63.94;101268.47;7282676;19;154077;-60
2022/09/24 00:59:03;;;;;;;;;;;;;;;21.30;64.35;101276.09;7289427;19;152363;-59
2022/09/24 01:01:30;;;;;;;;;;;;;;;21.32;64.19;101278.59;7279186;19;153791;-60
2022/09/24 01:03:58;;;;;;;;;;;;;;;21.32;64.32;101279.44;7282663;19;153312;-60
2022/09/24 01:06:25;;;;;;;;;;;;;;;21.33;64.32;101283.06;7285088;19;152208;-60
2022/09/24 01:08:54;;;;;;;;;;;;;;;21.32;64.20;101279.44;7281517;19;153549;-60
2022/09/24 01:11:41;;;;;;;;;;;;;;;21.34;64.19;101287.56;7285543;19;153655;-59
2022/09/24 01:14:27;;;;;;;;;;;;;;;21.34;64.30;101277.16;7276436;19;153322;-59
2022/09/24 01:16:57;;;;;;;;;;;;;;;21.34;64.36;101273.50;7279754;19;154534;-59
2022/09/24 01:19:41;;;;;;;;;;;;;;;21.32;64.06;101279.44;7282486;19;151895;-59
2022/09/24 01:22:35;;;;;;;;;;;;;;;21.32;64.41;101275.78;7285086;19;152521;-59
2022/09/24 01:25:04;;;;;;;;;;;;;;;21.32;63.99;101273.81;7281199;19;152367;-59
2022/09/24 01:27:48;;;;;;;;;;;;;;;21.29;64.43;101269.66;7284058;19;153679;-59
2022/09/24 01:30:15;;;;;;;;;;;;;;;21.30;64.45;101274.09;7279786;19;153910;-59
2022/09/24 01:32:57;;;;;;;;;;;;;;;21.28;64.55;101261.50;7283628;19;151931;-58
2022/09/24 01:35:38;;;;;;;;;;;;;;;21.30;64.39;101262.06;7281481;19;153822;-59
2022/09/24 01:38:08;;;;;;;;;;;;;;;21.30;64.54;101260.03;7283516;19;154100;-59
2022/09/24 01:40:36;;;;;;;;;;;;;;;21.29;64.33;101247.16;7281457;19;152781;-59
2022/09/24 01:43:12;;;;;;;;;;;;;;;21.29;64.58;101252.78;7282279;19;152009;-59
2022/09/24 01:45:39;;;;;;;;;;;;;;;21.30;64.14;101257.25;7289786;19;154144;-59
2022/09/24 01:48:06;;;;;;;;;;;;;;;21.30;64.30;101253.63;7283517;19;153465;-59
2022/09/24 01:50:39;;;;;;;;;;;;;;;21.29;64.60;101251.94;7282327;19;153973;-59
2022/09/24 01:53:18;;;;;;;;;;;;;;;21.29;64.43;101251.94;7283112;19;151650;-59
2022/09/24 01:55:48;;;;;;;;;;;;;;;21.28;64.71;101255.88;7282253;19;152556;-59
2022/09/24 01:58:36;;;;;;;;;;;;;;;21.28;64.81;101250.25;7281359;19;153590;-59
2022/09/24 02:01:09;;;;;;;;;;;;;;;21.29;64.56;101254.75;7281177;19;155266;-58
2022/09/24 02:03:42;;;;;;;;;;;;;;;21.27;64.82;101259.84;7280110;19;152191;-59
2022/09/24 02:06:15;;;;;;;;;;;;;;;21.27;64.79;101262.66;7282043;19;154076;-59
2022/09/24 02:08:46;;;;;;;;;;;;;;;21.28;64.74;101267.13;7288764;19;152408;-60
2022/09/24 02:11:15;;;;;;;;;;;;;;;21.28;64.81;101264.31;7281997;19;154403;-59
2022/09/24 02:13:54;;;;;;;;;;;;;;;21.28;64.86;101258.69;7280901;19;151872;-59
2022/09/24 02:16:25;;;;;;;;;;;;;;;21.27;64.91;101265.44;7281569;19;152670;-59
2022/09/24 02:18:55;;;;;;;;;;;;;;;21.27;65.05;101262.66;7280792;19;153565;-60
2022/09/24 02:21:23;;;;;;;;;;;;;;;21.27;64.91;101259.84;7289672;19;151824;-59
2022/09/24 02:23:52;;;;;;;;;;;;;;;21.28;64.75;101255.88;7287714;19;153829;-59
2022/09/24 02:26:19;;;;;;;;;;;;;;;21.28;65.15;101251.09;7288524;19;152666;-65
2022/09/24 02:28:46;;;;;;;;;;;;;;;21.28;64.63;101247.47;7286532;19;152730;-60
2022/09/24 02:31:15;;;;;;;;;;;;;;;21.28;64.95;101250.25;7296039;19;153843;-59
2022/09/24 02:36:30;;;;;;;;;;;;;;;21.27;65.07;101242.97;7287570;19;153835;-59
2022/09/24 02:38:57;;;;;;;;;;;;;;;21.27;65.05;101245.78;7286317;19;154144;-59
2022/09/24 02:41:25;;;;;;;;;;;;;;;21.26;65.28;101249.72;7288897;19;151823;-59
2022/09/24 02:43:54;;;;;;;;;;;;;;;21.25;65.35;101248.09;7285784;19;152383;-59
2022/09/24 02:46:24;;;;;;;;;;;;;;;21.27;64.98;101242.97;7286129;19;153135;-58
2022/09/24 02:48:52;;;;;;;;;;;;;;;21.27;65.36;101243.81;7287474;19;152412;-59
2022/09/24 02:51:19;;;;;;;;;;;;;;;21.25;65.35;101236.84;7295595;19;153490;-60
2022/09/24 02:53:46;;;;;;;;;;;;;;;21.24;65.26;101236.00;7284682;19;152425;-60
2022/09/24 02:56:19;;;;;;;;;;;;;;;21.24;64.83;101238.81;7288397;19;153538;-60
2022/09/24 02:59:08;;;;;;;;;;;;;;;21.27;65.28;101240.16;7283508;19;154158;-60
2022/09/24 03:01:55;;;;;;;;;;;;;;;21.24;65.19;101233.19;7288406;19;152886;-59
2022/09/24 03:04:47;;;;;;;;;;;;;;;21.24;65.47;101235.16;7287199;19;152406;-59
2022/09/24 03:07:29;;;;;;;;;;;;;;;21.24;65.51;101232.34;7286769;19;154649;-59
2022/09/24 03:09:56;;;;;;;;;;;;;;;21.23;65.31;101231.50;7286537;19;152978;-59
2022/09/24 03:12:23;;;;;;;;;;;;;;;21.23;65.32;101228.69;7288068;19;153443;-59
2022/09/24 03:14:50;;;;;;;;;;;;;;;21.22;65.01;101232.66;7289756;19;155001;-59
2022/09/24 03:17:17;;;;;;;;;;;;;;;21.21;65.58;101228.16;7285850;19;153772;-60
2022/09/24 03:19:44;;;;;;;;;;;;;;;21.20;65.65;101234.94;7284847;19;153670;-59
2022/09/24 03:22:11;;;;;;;;;;;;;;;21.22;65.34;101235.47;7288927;19;152198;-59
2022/09/24 03:24:38;;;;;;;;;;;;;;;21.20;65.46;101243.38;7284819;19;152976;-59
2022/09/24 03:27:05;;;;;;;;;;;;;;;21.22;65.10;101234.63;7286065;19;152456;-59
2022/09/24 03:32:17;;;;;;;;;;;;;;;21.22;65.28;101238.28;7285965;19;153053;-59
2022/09/24 03:34:44;;;;;;;;;;;;;;;21.20;65.53;101240.56;7285001;19;153493;-59
2022/09/24 03:37:11;;;;;;;;;;;;;;;21.21;65.21;101238.59;7292364;19;151525;-59
2022/09/24 03:39:38;;;;;;;;;;;;;;;21.20;65.29;101236.91;7285641;19;153716;-59
2022/09/24 03:42:05;;;;;;;;;;;;;;;21.20;65.58;101243.38;7286370;19;152171;-59
2022/09/24 03:44:31;;;;;;;;;;;;;;;21.19;65.31;101236.06;7284557;19;152014;-58
2022/09/24 03:46:58;;;;;;;;;;;;;;;21.20;65.45;101234.09;7286311;19;153488;-59
2022/09/24 03:49:25;;;;;;;;;;;;;;;21.19;65.83;101244.50;7285926;19;152372;-59
2022/09/24 03:51:52;;;;;;;;;;;;;;;21.20;65.67;101242.53;7287445;19;153846;-59
2022/09/24 03:54:19;;;;;;;;;;;;;;;21.20;65.90;101240.56;7283815;19;153902;-59
2022/09/24 03:56:46;;;;;;;;;;;;;;;21.19;65.77;101243.66;7285016;19;151958;-59
2022/09/24 03:59:13;;;;;;;;;;;;;;;21.20;65.91;101242.53;7290611;19;153829;-59
2022/09/24 04:01:40;;;;;;;;;;;;;;;21.19;65.90;101254.91;7285836;19;152124;-59
2022/09/24 04:04:08;;;;;;;;;;;;;;;21.19;65.52;101254.91;7285657;19;152866;-59
2022/09/24 04:06:35;;;;;;;;;;;;;;;21.19;65.71;101252.09;7286364;19;154238;-59
2022/09/24 04:09:02;;;;;;;;;;;;;;;21.18;65.52;101259.69;7284532;19;152260;-59
2022/09/24 04:11:29;;;;;;;;;;;;;;;21.19;65.75;101260.53;7286445;19;153503;-59
2022/09/24 04:13:57;;;;;;;;;;;;;;;21.18;65.66;101261.66;7282729;19;153474;-59
2022/09/24 04:16:27;;;;;;;;;;;;;;;21.17;65.63;101260.00;7285691;19;151974;-59
2022/09/24 04:18:57;;;;;;;;;;;;;;;21.16;65.80;101259.19;7284220;19;153147;-58
2022/09/24 04:21:25;;;;;;;;;;;;;;;21.18;65.55;101267.28;7291898;19;153463;-59
2022/09/24 04:23:52;;;;;;;;;;;;;;;21.18;65.53;101267.28;7284398;19;153077;-59
2022/09/24 04:26:19;;;;;;;;;;;;;;;21.17;65.56;101260.81;7284322;19;153692;-59
2022/09/24 04:28:46;;;;;;;;;;;;;;;21.16;65.23;101269.59;7283092;19;152410;-60
2022/09/24 04:31:13;;;;;;;;;;;;;;;21.18;65.02;101264.47;7286883;19;153505;-60
2022/09/24 04:33:42;;;;;;;;;;;;;;;21.16;65.37;101252.72;7281793;19;153775;-59
2022/09/24 04:36:09;;;;;;;;;;;;;;;21.14;65.43;101255.81;7286649;19;151900;-59
2022/09/24 04:38:36;;;;;;;;;;;;;;;21.16;65.11;101258.34;7282975;19;151964;-59
2022/09/24 04:41:04;;;;;;;;;;;;;;;21.15;65.06;101251.88;7285074;19;154554;-60
2022/09/24 04:43:32;;;;;;;;;;;;;;;21.15;65.17;101256.66;7289608;19;152115;-59
2022/09/24 04:46:00;;;;;;;;;;;;;;;21.14;64.97;101264.25;7285288;19;153352;-59
2022/09/24 04:48:28;;;;;;;;;;;;;;;21.12;65.17;101258.06;7283276;19;152694;-60
2022/09/24 04:50:56;;;;;;;;;;;;;;;21.14;64.63;101255.00;7286397;19;152792;-59
2022/09/24 04:53:23;;;;;;;;;;;;;;;21.13;64.96;101261.75;7281805;19;153493;-59
2022/09/24 04:55:50;;;;;;;;;;;;;;;21.11;64.76;101264.84;7286101;19;152534;-59
2022/09/24 04:58:17;;;;;;;;;;;;;;;21.11;65.05;101266.81;7281233;19;153333;-59
2022/09/24 05:00:50;;;;;;;;;;;;;;;21.10;65.06;101267.94;7281166;19;154745;-59
2022/09/24 05:03:20;;;;;;;;;;;;;;;21.09;64.95;101261.50;7291320;19;152713;-60
2022/09/24 05:05:47;;;;;;;;;;;;;;;21.09;65.14;101263.47;7282731;19;154539;-60
2022/09/24 05:08:15;;;;;;;;;;;;;;;21.08;64.64;101262.63;7284529;19;151927;-59
2022/09/24 05:10:53;;;;;;;;;;;;;;;21.08;64.84;101273.03;7283823;19;154152;-59
2022/09/24 05:13:20;;;;;;;;;;;;;;;21.09;64.82;101267.09;7282484;19;153375;-59
2022/09/24 05:15:47;;;;;;;;;;;;;;;21.09;64.84;101274.69;7284443;19;153463;-59
2022/09/24 05:18:14;;;;;;;;;;;;;;;21.07;65.10;101271.38;7281287;19;153605;-59
2022/09/24 05:20:46;;;;;;;;;;;;;;;21.08;64.84;101273.03;7283408;19;153773;-60
2022/09/24 05:23:15;;;;;;;;;;;;;;;21.06;64.85;101275.31;7283398;19;152265;-59
2022/09/24 05:28:27;;;;;;;;;;;;;;;21.06;64.97;101278.13;7280912;19;152516;-59
2022/09/24 05:30:56;;;;;;;;;;;;;;;21.06;64.88;101289.38;7284281;19;152696;-60
2022/09/24 05:33:24;;;;;;;;;;;;;;;21.07;64.62;101285.44;7282180;19;154361;-59
2022/09/24 05:35:55;;;;;;;;;;;;;;;21.04;64.84;101291.63;7284982;19;151900;-59
2022/09/24 05:38:22;;;;;;;;;;;;;;;21.03;64.90;101284.38;7279825;19;152146;-59
2022/09/24 05:40:54;;;;;;;;;;;;;;;21.05;64.38;101296.13;7281190;19;154139;-59
2022/09/24 05:43:30;;;;;;;;;;;;;;;21.05;64.58;101307.34;7282233;19;152243;-59
2022/09/24 05:45:57;;;;;;;;;;;;;;;21.04;64.73;101306.53;7284769;19;153708;-59
2022/09/24 05:48:24;;;;;;;;;;;;;;;21.03;64.55;101299.22;7288633;19;153304;-59
2022/09/24 05:50:54;;;;;;;;;;;;;;;21.03;64.36;101295.59;7283340;19;153225;-59
2022/09/24 05:53:24;;;;;;;;;;;;;;;21.03;64.75;101304.84;7278802;19;153346;-62
2022/09/24 05:55:51;;;;;;;;;;;;;;;21.04;64.61;101305.69;7285143;19;152001;-59
2022/09/24 05:58:19;;;;;;;;;;;;;;;21.03;64.60;101299.22;7277880;19;153554;-59
2022/09/24 06:00:50;;;;;;;;;;;;;;;21.04;64.41;101308.50;7279097;19;153861;-59
2022/09/24 06:03:18;;;;;;;;;;;;;;;21.03;64.45;101309.66;7282677;19;153354;-58
2022/09/24 06:05:50;;;;;;;;;;;;;;;21.02;64.33;101314.44;7284254;19;153421;-59
2022/09/24 06:08:19;;;;;;;;;;;;;;;21.02;64.32;101319.22;7282064;19;153874;-60
2022/09/24 06:10:49;;;;;;;;;;;;;;;21.03;64.18;101326.50;7290483;19;152040;-59
2022/09/24 06:13:17;;;;;;;;;;;;;;;21.01;64.41;101321.19;7279224;19;154149;-59
2022/09/24 06:15:44;;;;;;;;;;;;;;;21.01;64.33;101326.81;7279899;19;152247;-59
2022/09/24 06:18:13;;;;;;;;;;;;;;;21.01;64.33;101331.56;7278129;19;152797;-59
2022/09/24 06:20:49;;;;;;;;;;;;;;;20.99;63.91;101333.84;7280866;19;152550;-60
2022/09/24 06:23:17;;;;;;;;;;;;;;;21.00;64.12;101336.34;7281457;19;151777;-60
2022/09/24 06:25:48;;;;;;;;;;;;;;;21.01;64.23;101337.19;7282824;19;152203;-59
2022/09/24 06:28:15;;;;;;;;;;;;;;;20.98;64.15;101335.84;7280258;19;153321;-59
2022/09/24 06:30:50;;;;;;;;;;;;;;;20.98;64.22;101332.19;7281784;19;152262;-60
2022/09/24 06:33:19;;;;;;;;;;;;;;;20.98;63.63;101343.44;7288466;19;153384;-59
2022/09/24 06:35:47;;;;;;;;;;;;;;;20.98;63.87;101340.63;7281194;19;152248;-60
2022/09/24 06:38:15;;;;;;;;;;;;;;;20.98;63.89;101343.44;7280659;19;153487;-59
2022/09/24 06:40:45;;;;;;;;;;;;;;;20.97;63.70;101344.56;7281234;19;153867;-60
2022/09/24 06:43:12;;;;;;;;;;;;;;;20.95;63.84;101349.63;7281232;19;152132;-59
2022/09/24 06:45:41;;;;;;;;;;;;;;;20.97;63.77;101351.03;7280977;19;152812;-59
2022/09/24 06:48:09;;;;;;;;;;;;;;;20.95;63.87;101350.47;7279884;19;154132;-60
2022/09/24 06:50:48;;;;;;;;;;;;;;;20.95;63.75;101364.50;7281796;19;151992;-59
2022/09/24 06:53:21;;;;;;;;;;;;;;;20.94;63.73;101365.66;7279057;19;153109;-60
2022/09/24 06:55:48;;;;;;;;;;;;;;;20.95;63.95;101358.91;7288420;19;151757;-60
2022/09/24 06:58:18;;;;;;;;;;;;;;;20.95;64.12;101364.50;7277942;19;152290;-60
2022/09/24 07:00:52;;;;;;;;;;;;;;;20.95;63.87;101367.31;7278252;19;153641;-60
2022/09/24 07:03:20;;;;;;;;;;;;;;;20.94;64.07;101367.66;7280893;19;152237;-60
2022/09/24 07:05:48;;;;;;;;;;;;;;;20.91;63.79;101373.84;7286366;19;154539;-60
2022/09/24 07:08:15;;;;;;;;;;;;;;;20.94;64.07;101373.25;7285475;19;153892;-61
2022/09/24 07:10:50;;;;;;;;;;;;;;;20.92;64.06;101375.53;7284511;19;153586;-60
2022/09/24 07:13:20;;;;;;;;;;;;;;;20.92;63.87;101375.53;7286574;19;154115;-59
2022/09/24 07:15:49;;;;;;;;;;;;;;;20.92;63.91;101381.13;7295077;19;153285;-59
2022/09/24 07:18:16;;;;;;;;;;;;;;;20.94;63.97;101384.50;7286454;19;154003;-59
2022/09/24 07:20:54;;;;;;;;;;;;;;;20.93;63.40;101389.28;7287771;19;153640;-60
2022/09/24 07:23:20;;;;;;;;;;;;;;;20.92;63.50;101381.97;7288255;19;152104;-59
2022/09/24 07:25:48;;;;;;;;;;;;;;;20.92;63.54;101379.19;7288655;19;153720;-59
2022/09/24 07:28:15;;;;;;;;;;;;;;;20.92;63.40;101383.94;7286737;19;154317;-59
2022/09/24 07:30:55;;;;;;;;;;;;;;;20.90;63.50;101386.22;7286287;19;152769;-60
2022/09/24 07:33:21;;;;;;;;;;;;;;;20.87;63.79;101390.47;7285563;19;152655;-60
2022/09/24 07:35:49;;;;;;;;;;;;;;;20.89;63.25;101384.56;7287746;19;152391;-60
2022/09/24 07:38:16;;;;;;;;;;;;;;;20.88;63.53;101385.69;7293325;19;153003;-60
2022/09/24 07:40:57;;;;;;;;;;;;;;;20.86;63.49;101386.81;7285822;19;153621;-59
2022/09/24 07:43:24;;;;;;;;;;;;;;;20.88;63.41;101382.88;7284330;19;153091;-59
2022/09/24 07:45:51;;;;;;;;;;;;;;;20.88;63.35;101386.53;7287984;19;154687;-60
2022/09/24 07:48:18;;;;;;;;;;;;;;;20.87;63.14;101398.91;7285539;19;153533;-60
2022/09/24 07:50:45;;;;;;;;;;;;;;;20.86;62.89;101397.22;7288878;19;152672;-59
2022/09/24 07:53:12;;;;;;;;;;;;;;;20.85;62.82;101392.72;7287851;19;153988;-59
2022/09/24 07:55:39;;;;;;;;;;;;;;;20.85;62.95;101402.00;7285974;19;154406;-60
2022/09/24 07:58:15;;;;;;;;;;;;;;;20.86;62.83;101405.63;7284990;19;151887;-59
2022/09/24 08:00:52;;;;;;;;;;;;;;;20.85;62.95;101403.97;7289153;19;153141;-60
2022/09/24 08:03:19;;;;;;;;;;;;;;;20.90;63.06;101414.28;7285148;19;152177;-60
2022/09/24 08:05:45;;;;;;;;;;;;;;;20.91;63.16;101401.94;7286345;19;153870;-60
2022/09/24 08:08:13;;;;;;;;;;;;;;;20.97;63.56;101417.59;7286302;19;155082;-60
2022/09/24 08:10:51;;;;;;;;;;;;;;;21.05;63.45;101417.78;7285908;19;153178;-60
2022/09/24 08:13:19;;;;;;;;;;;;;;;21.10;63.81;101420.50;7287830;19;153637;-60
2022/09/24 08:15:58;;;;;;;;;;;;;;;21.14;63.66;101420.78;7284566;19;152709;-60
2022/09/24 08:18:25;;;;;;;;;;;;;;;21.18;63.98;101422.69;7283689;19;152079;-60
2022/09/24 08:20:52;;;;;;;;;;;;;;;21.22;64.34;101425.72;7288014;19;153005;-60
2022/09/24 08:23:19;;;;;;;;;;;;;;;21.28;64.38;101435.75;7293149;19;154426;-60
2022/09/24 08:25:46;;;;;;;;;;;;;;;21.32;64.20;101425.59;7285852;19;152573;-60
2022/09/24 08:28:15;;;;;;;;;;;;;;;21.38;64.15;101429.16;7285423;19;153598;-60
2022/09/24 08:30:48;;;;;;;;;;;;;;;21.42;64.05;101431.06;7285394;19;153587;-60
2022/09/24 08:33:15;;;;;;;;;;;;;;;21.47;63.80;101435.78;7286204;19;153705;-60
2022/09/24 08:35:42;;;;;;;;;;;;;;;21.49;63.76;101434.31;7286822;19;153374;-60
2022/09/24 08:38:08;;;;;;;;;;;;;;;21.55;63.26;101437.91;7284311;19;152216;-60
2022/09/24 08:40:37;;;;;;;;;;;;;;;21.59;63.53;101437.00;7286359;19;153255;-60
2022/09/24 08:43:16;;;;;;;;;;;;;;;21.63;63.22;101437.22;7282739;19;154167;-60
2022/09/24 08:48:45;;;;;;;;;;;;;;;21.72;62.69;101447.50;7262634;19;153474;-60
2022/09/24 08:51:21;;;;;;;;;;;;;;;21.76;62.65;101444.09;7280237;19;153511;-60
2022/09/24 08:53:52;;;;;;;;;;;;;;;21.80;62.14;101442.34;7279024;19;152708;-60
2022/09/24 08:56:31;;;;;;;;;;;;;;;21.82;62.33;101448.47;7283843;19;153877;-60
2022/09/24 08:59:10;;;;;;;;;;;;;;;21.86;61.89;101446.72;7279271;19;152247;-60
2022/09/24 09:01:43;;;;;;;;;;;;;;;21.90;62.24;101453.41;7282616;19;153910;-61
2022/09/24 09:04:25;;;;;;;;;;;;;;;21.93;62.10;101455.66;7280369;19;153133;-60
2022/09/24 09:07:00;;;;;;;;;;;;;;;21.95;61.90;101442.09;7290842;19;151968;-60
2022/09/24 09:09:40;;;;;;;;;;;;;;;22.02;61.68;101451.00;7281220;19;154686;-58
2022/09/24 09:12:23;;;;;;;;;;;;;;;22.02;61.43;101453.81;7282048;19;152127;-58
2022/09/24 09:15:02;;;;;;;;;;;;;;;22.00;60.23;101445.69;7281354;19;153488;-58
2022/09/24 09:17:41;;;;;;;;;;;;;;;22.01;60.07;101447.34;7281772;19;152736;-58
2022/09/24 09:20:16;;;;;;;;;;;;;;;22.02;59.45;101449.03;7281063;19;152393;-58
2022/09/24 09:22:47;;;;;;;;;;;;;;;22.04;59.14;101448.72;7284541;19;152598;-58
2022/09/24 09:25:17;;;;;;;;;;;;;;;22.04;59.09;101440.25;7281359;19;153427;-58
2022/09/24 09:27:44;;;;;;;;;;;;;;;22.05;59.04;101439.13;7283415;19;153046;-58
2022/09/24 09:30:12;;;;;;;;;;;;;;;22.08;59.17;101452.56;7289445;19;153035;-58
2022/09/24 09:32:47;;;;;;;;;;;;;;;22.08;58.75;101436.53;7283264;19;151805;-58
2022/09/24 09:35:18;;;;;;;;;;;;;;;22.10;58.58;101447.50;7280235;19;153531;-58
2022/09/24 09:37:45;;;;;;;;;;;;;;;22.13;58.23;101449.69;7281333;19;153970;-58
2022/09/24 09:40:30;;;;;;;;;;;;;;;22.14;58.34;101440.09;7281117;19;152207;-58
2022/09/24 09:42:58;;;;;;;;;;;;;;;22.16;58.46;101451.91;7281028;19;153631;-58
2022/09/24 09:45:44;;;;;;;;;;;;;;;22.13;58.12;101456.16;7278101;19;154083;-58
2022/09/24 09:48:15;;;;;;;;;;;;;;;22.10;57.52;101453.97;7277734;19;156647;-58
2022/09/24 09:50:52;;;;;;;;;;;;;;;22.10;57.85;101455.94;7280304;19;152691;-58
2022/09/24 09:53:23;;;;;;;;;;;;;;;22.10;57.49;101447.50;7287643;19;154085;-58
2022/09/24 09:55:55;;;;;;;;;;;;;;;22.14;57.91;101454.16;7281559;19;153590;-58
2022/09/24 09:58:26;;;;;;;;;;;;;;;22.13;57.55;101447.69;7278710;19;154194;-58
2022/09/24 10:01:04;;;;;;;;;;;;;;;22.14;57.56;101451.34;7276601;19;152032;-58
2022/09/24 10:03:33;;;;;;;;;;;;;;;22.16;57.87;101441.47;7281312;19;152646;-58
2022/09/24 10:06:00;;;;;;;;;;;;;;;22.17;57.69;101448.75;7280803;19;153433;-58
2022/09/24 10:08:28;;;;;;;;;;;;;;;22.16;57.30;101449.09;7279962;19;155481;-58
2022/09/24 10:11:01;;;;;;;;;;;;;;;22.18;57.44;101443.97;7278514;19;153122;-58
2022/09/24 10:13:31;;;;;;;;;;;;;;;22.18;57.71;101450.44;7274760;19;153132;-58
2022/09/24 10:16:05;;;;;;;;;;;;;;;22.16;57.44;101447.09;7269051;19;154080;-58
2022/09/24 10:18:37;;;;;;;;;;;;;;;22.16;57.66;101446.28;7271109;19;154339;-58
2022/09/24 10:21:07;;;;;;;;;;;;;;;22.15;57.71;101445.44;7277638;19;152195;-58
2022/09/24 10:23:36;;;;;;;;;;;;;;;22.16;57.45;101447.09;7276440;19;152901;-58
2022/09/24 10:26:03;;;;;;;;;;;;;;;22.17;57.90;101445.94;7276688;19;153485;-58
2022/09/24 10:31:24;;;;;;;;;;;;;;;22.18;57.84;101443.97;7277165;19;153523;-58
2022/09/24 10:33:52;;;;;;;;;;;;;;;22.17;57.66;101445.09;7274776;19;153524;-58
2022/09/24 10:36:21;;;;;;;;;;;;;;;22.17;58.01;101440.31;7277808;19;153285;-58
2022/09/24 10:38:48;;;;;;;;;;;;;;;22.18;57.88;101442.00;7280076;19;153987;-58
2022/09/24 10:41:33;;;;;;;;;;;;;;;22.18;58.21;101441.16;7284017;19;152380;-58
2022/09/24 10:44:12;;;;;;;;;;;;;;;22.18;58.36;101435.53;7280338;19;153457;-58
2022/09/24 10:46:39;;;;;;;;;;;;;;;22.18;58.16;101435.53;7280781;19;154130;-58
2022/09/24 10:49:24;;;;;;;;;;;;;;;22.20;58.34;101441.69;7277485;19;155652;-58
2022/09/24 10:51:59;;;;;;;;;;;;;;;22.21;58.16;101445.34;7282563;19;153426;-58
2022/09/24 10:54:41;;;;;;;;;;;;;;;22.20;58.27;101438.88;7278606;19;153797;-57
2022/09/24 10:57:26;;;;;;;;;;;;;;;22.17;57.69;101439.47;7282687;19;152295;-58
2022/09/24 11:00:01;;;;;;;;;;;;;;;22.11;54.47;101435.09;7274503;19;152989;-58
2022/09/24 11:02:33;;;;;;;;;;;;;;;22.06;55.24;101441.66;7288585;19;154834;-58
2022/09/24 11:05:09;;;;;;;;;;;;;;;22.09;54.70;101440.19;7281733;19;152549;-58
2022/09/24 11:07:43;;;;;;;;;;;;;;;22.09;55.12;101443.00;7285419;19;154212;-58
2022/09/24 11:10:28;;;;;;;;;;;;;;;22.07;53.97;101440.50;7283512;19;153009;-58
2022/09/24 11:13:14;;;;;;;;;;;;;;;22.07;53.16;101440.50;7285247;19;153166;-58
2022/09/24 11:15:53;;;;;;;;;;;;;;;22.03;53.36;101447.88;7283458;19;153421;-58
2022/09/24 11:18:34;;;;;;;;;;;;;;;22.00;54.31;101442.84;7281025;19;152650;-58
2022/09/24 11:21:14;;;;;;;;;;;;;;;21.98;52.14;101444.31;7284514;19;152765;-58
2022/09/24 11:24:03;;;;;;;;;;;;;;;21.95;52.25;101440.13;7290300;19;152707;-58
2022/09/24 11:27:03;;;;;;;;;;;;;;;21.95;52.25;101440.13;7286831;19;153168;-57
2022/09/24 11:29:36;;;;;;;;;;;;;;;21.96;51.98;101439.00;7281290;19;153620;-57
2022/09/24 11:32:15;;;;;;;;;;;;;;;21.98;51.57;101444.31;7284334;19;152552;-57
2022/09/24 11:35:03;;;;;;;;;;;;;;;21.96;51.24;101435.34;7285634;19;152867;-57
2022/09/24 11:37:43;;;;;;;;;;;;;;;21.99;52.46;101434.72;7284694;19;152793;-57
2022/09/24 11:40:12;;;;;;;;;;;;;;;21.96;52.11;101435.34;7281558;19;153320;-58
2022/09/24 11:42:51;;;;;;;;;;;;;;;21.98;53.16;101431.09;7284052;19;152468;-57
2022/09/24 11:45:23;;;;;;;;;;;;;;;21.95;51.81;101430.84;7282647;19;153482;-57
2022/09/24 11:47:53;;;;;;;;;;;;;;;21.96;52.48;101432.53;7290910;19;152629;-58
2022/09/24 11:50:27;;;;;;;;;;;;;;;21.94;52.46;101432.00;7277604;19;154412;-56
2022/09/24 11:52:54;;;;;;;;;;;;;;;21.94;52.84;101426.38;7284060;19;153813;-56
2022/09/24 11:55:24;;;;;;;;;;;;;;;21.96;52.94;101436.19;7284559;19;152831;-56
2022/09/24 11:57:56;;;;;;;;;;;;;;;21.98;53.67;101435.88;7284049;19;153574;-56
2022/09/24 12:00:27;;;;;;;;;;;;;;;22.00;53.96;101425.13;7281687;19;152524;-55
2022/09/24 12:03:16;;;;;;;;;;;;;;;22.01;54.16;101427.66;7285887;19;152725;-56
2022/09/24 12:05:53;;;;;;;;;;;;;;;22.02;54.73;101420.88;7286193;19;153979;-57
2022/09/24 12:08:31;;;;;;;;;;;;;;;22.05;54.62;101425.06;7286705;19;151924;-56
2022/09/24 12:11:06;;;;;;;;;;;;;;;22.03;54.94;101422.53;7293115;19;152862;-56
2022/09/24 12:13:37;;;;;;;;;;;;;;;22.05;55.37;101422.25;7285598;19;153995;-56
2022/09/24 12:16:11;;;;;;;;;;;;;;;22.04;55.54;101414.94;7286342;19;155588;-56
2022/09/24 12:18:53;;;;;;;;;;;;;;;22.04;55.33;101417.75;7284020;19;153439;-56
2022/09/24 12:21:22;;;;;;;;;;;;;;;22.04;55.22;101427.03;7286470;19;153049;-56
2022/09/24 12:23:50;;;;;;;;;;;;;;;22.03;55.25;101427.34;7285180;19;154295;-56
2022/09/24 12:26:19;;;;;;;;;;;;;;;22.02;55.68;101429.34;7285102;19;153602;-55
2022/09/24 12:35:18;;;;;;;;;;;;;;;22.02;55.36;101434.97;7290944;19;154076;-56
2022/09/24 12:37:47;;;;;;;;;;;;;;;22.03;55.68;101428.16;7287933;19;153473;-57
2022/09/24 12:40:24;;;;;;;;;;;;;;;22.04;55.27;101420.56;7220681;19;157633;-57
2022/09/24 12:42:55;;;;;;;;;;;;;;;22.04;55.47;101426.19;7285221;19;152136;-57
2022/09/24 12:45:23;;;;;;;;;;;;;;;22.02;55.56;101429.34;7281613;19;152759;-57
2022/09/24 12:47:52;;;;;;;;;;;;;;;22.02;55.91;101426.53;7284787;19;155140;-57
2022/09/24 12:50:27;;;;;;;;;;;;;;;22.02;55.98;101426.53;7280192;19;153046;-57
2022/09/24 12:52:54;;;;;;;;;;;;;;;22.03;55.72;101427.34;7281346;19;154857;-57
2022/09/24 12:55:25;;;;;;;;;;;;;;;22.03;55.44;101433.00;7282935;19;153770;-57
2022/09/24 12:57:52;;;;;;;;;;;;;;;22.03;55.42;101435.81;7293381;19;151841;-57
2022/09/24 13:00:30;;;;;;;;;;;;;;;22.02;55.90;101434.13;7280781;19;153433;-58
2022/09/24 13:02:57;;;;;;;;;;;;;;;22.03;56.00;101433.00;7285228;19;152110;-57
2022/09/24 13:05:26;;;;;;;;;;;;;;;22.03;55.64;101430.16;7285841;19;153144;-57
2022/09/24 13:08:13;;;;;;;;;;;;;;;22.02;55.88;101437.78;7284345;19;153904;-58
2022/09/24 13:10:39;;;;;;;;;;;;;;;22.04;55.68;101429.00;7285226;19;152468;-57
2022/09/24 13:13:27;;;;;;;;;;;;;;;22.04;55.79;101426.19;7284995;19;153401;-58